TimeEDT,TemperatureF,Dew PointF,Humidity,Sea Level PressureIn,VisibilityMPH,Wind Direction,Wind SpeedMPH,Gust SpeedMPH,PrecipitationIn,Events,Conditions,WindDirDegrees,DateUTC
12:15 AM,63.0,56.7,80,29.84,10.0,Calm,Calm,-,N/A,,Overcast,0,2013-06-16 04:15:00
12:35 AM,62.6,57.6,84,29.84,10.0,North,11.5,17.3,N/A,Rain,Rain,350,2013-06-16 04:35:00
12:54 AM,54.9,51.3,88,29.83,10.0,North,5.8,-,N/A,Rain,Light Rain,350,2013-06-16 04:54:00
1:15 AM,54.0,51.4,91,29.83,7.0,NNW,3.5,-,N/A,Rain,Light Rain,330,2013-06-16 05:15:00
1:35 AM,54.1,52.0,92,29.83,5.0,NNW,3.5,-,N/A,Rain,Rain,340,2013-06-16 05:35:00
1:54 AM,53.8,51.8,93,29.83,5.0,Calm,Calm,-,N/A,Rain,Light Rain,0,2013-06-16 05:54:00
2:15 AM,53.6,51.6,93,29.82,7.0,Calm,Calm,-,N/A,Rain,Light Rain,0,2013-06-16 06:15:00
2:35 AM,53.8,51.8,93,29.82,5.0,WNW,3.5,-,N/A,Rain,Rain,300,2013-06-16 06:35:00
2:54 AM,54.0,52.0,93,29.82,4.0,NW,3.5,-,N/A,Rain,Rain,310,2013-06-16 06:54:00
3:15 AM,54.1,52.5,94,29.79,2.5,Calm,Calm,-,N/A,Rain,Rain,0,2013-06-16 07:15:00
3:35 AM,54.0,52.5,95,29.77,5.0,ESE,3.5,-,N/A,Rain,Light Rain,110,2013-06-16 07:35:00
3:55 AM,54.1,52.7,95,29.76,4.0,SSE,5.8,-,N/A,Rain,Rain,150,2013-06-16 07:55:00
4:15 AM,54.1,52.7,95,29.77,3.0,ESE,3.5,-,N/A,Rain,Light Rain,120,2013-06-16 08:15:00
4:34 AM,54.5,53.1,95,29.77,4.0,SE,3.5,-,N/A,Rain,Light Rain,140,2013-06-16 08:34:00
4:55 AM,54.9,53.6,96,29.78,5.0,Calm,Calm,-,N/A,Rain,Light Rain,0,2013-06-16 08:55:00
5:15 AM,55.4,54.0,95,29.78,4.0,Calm,Calm,-,N/A,Rain,Light Rain,0,2013-06-16 09:15:00
5:34 AM,55.4,53.8,94,29.78,3.0,WSW,3.5,-,N/A,Rain,Light Rain,250,2013-06-16 09:34:00
5:55 AM,55.4,54.0,95,29.77,3.0,Calm,Calm,-,N/A,,Overcast,0,2013-06-16 09:55:00
6:15 AM,55.6,54.3,96,29.76,4.0,Calm,Calm,-,N/A,,Overcast,0,2013-06-16 10:15:00
6:34 AM,55.9,54.7,96,29.77,3.0,West,3.5,-,N/A,Rain,Light Rain,270,2013-06-16 10:34:00
6:55 AM,56.3,55.2,96,29.78,3.0,Calm,Calm,-,N/A,,Overcast,0,2013-06-16 10:55:00
7:15 AM,56.8,55.6,96,29.77,4.0,WSW,3.5,-,N/A,,Overcast,250,2013-06-16 11:15:00
7:35 AM,57.4,56.1,96,29.77,4.0,West,3.5,-,N/A,,Overcast,260,2013-06-16 11:35:00
7:55 AM,59.0,57.7,96,29.77,5.0,West,5.8,-,N/A,,Overcast,270,2013-06-16 11:55:00
8:15 AM,59.9,58.5,95,29.78,7.0,West,6.9,-,N/A,,Overcast,280,2013-06-16 12:15:00
8:35 AM,60.8,59.2,94,29.77,7.0,West,4.6,-,N/A,,Overcast,270,2013-06-16 12:35:00
8:55 AM,61.7,59.9,94,29.78,7.0,West,4.6,-,N/A,,Overcast,280,2013-06-16 12:55:00
9:15 AM,62.6,60.4,93,29.78,7.0,WNW,6.9,-,N/A,,Overcast,290,2013-06-16 13:15:00
9:35 AM,62.6,60.3,92,29.79,7.0,NW,5.8,-,N/A,,Overcast,310,2013-06-16 13:35:00
9:54 AM,62.2,59.9,92,29.80,2.5,NW,10.4,-,N/A,,Overcast,320,2013-06-16 13:54:00
10:15 AM,62.1,60.1,93,29.80,1.5,West,5.8,-,N/A,,Overcast,280,2013-06-16 14:15:00
10:35 AM,64.4,61.7,91,29.79,7.0,NW,5.8,-,N/A,,Overcast,310,2013-06-16 14:35:00
10:54 AM,67.1,63.0,87,29.79,10.0,WNW,8.1,-,N/A,,Mostly Cloudy,290,2013-06-16 14:54:00
11:15 AM,68.2,62.2,81,29.79,10.0,West,10.4,-,N/A,,Mostly Cloudy,280,2013-06-16 15:15:00
11:35 AM,68.7,62.4,80,29.78,10.0,WNW,6.9,-,N/A,,Overcast,300,2013-06-16 15:35:00
11:54 AM,68.9,62.4,80,29.79,10.0,West,4.6,-,N/A,,Overcast,270,2013-06-16 15:54:00
12:15 PM,70.7,62.2,75,29.78,10.0,West,8.1,-,N/A,,Mostly Cloudy,270,2013-06-16 16:15:00
12:35 PM,72.1,62.6,72,29.77,10.0,WSW,5.8,-,N/A,,Scattered Clouds,250,2013-06-16 16:35:00
12:55 PM,72.7,63.1,72,29.77,10.0,SW,9.2,-,N/A,,Scattered Clouds,220,2013-06-16 16:55:00
1:15 PM,73.4,62.2,68,29.76,10.0,SW,10.4,16.1,N/A,,Scattered Clouds,230,2013-06-16 17:15:00
1:35 PM,74.3,62.1,65,29.76,10.0,SSW,11.5,17.3,N/A,,Clear,210,2013-06-16 17:35:00
1:55 PM,75.2,61.9,63,29.75,10.0,SW,9.2,-,N/A,,Clear,230,2013-06-16 17:55:00
2:15 PM,76.1,61.3,60,29.74,10.0,SW,12.7,17.3,N/A,,Clear,220,2013-06-16 18:15:00
2:35 PM,77.5,59.4,53,29.74,10.0,WSW,10.4,18.4,N/A,,Clear,250,2013-06-16 18:35:00
2:55 PM,78.1,58.3,50,29.74,10.0,WSW,15.0,19.6,N/A,,Clear,250,2013-06-16 18:55:00
3:14 PM,78.4,55.9,46,29.75,10.0,West,11.5,21.9,N/A,,Clear,280,2013-06-16 19:14:00
3:35 PM,79.0,57.4,47,29.75,10.0,WSW,12.7,20.7,N/A,,Scattered Clouds,250,2013-06-16 19:35:00
3:54 PM,79.0,57.2,47,29.76,10.0,West,13.8,21.9,N/A,,Mostly Cloudy,270,2013-06-16 19:54:00
4:15 PM,78.3,56.5,47,29.77,10.0,West,10.4,19.6,N/A,,Mostly Cloudy,270,2013-06-16 20:15:00
4:35 PM,69.1,57.0,65,29.78,10.0,North,10.4,19.6,N/A,,Mostly Cloudy,350,2013-06-16 20:35:00
4:54 PM,63.9,57.4,79,29.79,10.0,North,11.5,-,N/A,,Overcast,350,2013-06-16 20:54:00
5:15 PM,64.9,58.3,79,29.78,10.0,North,6.9,-,N/A,,Mostly Cloudy,350,2013-06-16 21:15:00
5:35 PM,66.4,58.5,76,29.79,10.0,North,5.8,-,N/A,,Mostly Cloudy,350,2013-06-16 21:35:00
5:54 PM,66.4,59.4,78,29.79,10.0,North,3.5,-,N/A,,Mostly Cloudy,350,2013-06-16 21:54:00
6:15 PM,74.8,55.8,51,29.79,10.0,WNW,8.1,17.3,N/A,,Scattered Clouds,290,2013-06-16 22:15:00
6:35 PM,66.7,57.6,72,29.79,10.0,North,4.6,-,N/A,,Clear,360,2013-06-16 22:35:00
6:55 PM,70.9,57.4,62,29.78,10.0,NNE,6.9,-,N/A,,Clear,20,2013-06-16 22:55:00
7:15 PM,63.7,56.3,77,29.79,10.0,North,5.8,-,N/A,,Clear,10,2013-06-16 23:15:00
7:34 PM,61.2,55.8,82,29.80,10.0,NNW,4.6,-,N/A,,Scattered Clouds,330,2013-06-16 23:34:00
7:55 PM,66.0,57.4,74,29.80,10.0,West,6.9,-,N/A,,Scattered Clouds,260,2013-06-16 23:55:00
8:15 PM,70.0,55.9,61,29.80,10.0,WSW,4.6,-,N/A,,Clear,250,2013-06-17 00:15:00
8:34 PM,68.9,54.7,60,29.80,10.0,West,5.8,-,N/A,,Clear,260,2013-06-17 00:34:00
8:55 PM,67.3,54.7,64,29.81,10.0,WSW,5.8,-,N/A,,Clear,250,2013-06-17 00:55:00
9:15 PM,66.2,55.0,67,29.82,10.0,West,4.6,-,N/A,,Clear,260,2013-06-17 01:15:00
9:34 PM,64.6,55.6,73,29.82,10.0,West,4.6,-,N/A,,Clear,260,2013-06-17 01:34:00
9:55 PM,63.5,55.6,75,29.82,10.0,WSW,5.8,-,N/A,,Clear,250,2013-06-17 01:55:00
10:15 PM,63.1,55.8,77,29.82,10.0,WSW,4.6,-,N/A,,Clear,250,2013-06-17 02:15:00
10:35 PM,59.4,53.6,81,29.84,10.0,North,6.9,-,N/A,,Scattered Clouds,10,2013-06-17 02:35:00
10:55 PM,58.6,54.1,85,29.85,10.0,WNW,3.5,-,N/A,,Mostly Cloudy,300,2013-06-17 02:55:00
11:14 PM,61.0,55.4,82,29.86,10.0,WNW,5.8,-,N/A,,Overcast,290,2013-06-17 03:14:00
11:35 PM,60.8,55.4,82,29.84,10.0,NW,3.5,-,N/A,Rain,Light Rain,320,2013-06-17 03:35:00
11:55 PM,60.3,54.5,81,29.83,10.0,Calm,Calm,-,N/A,,Mostly Cloudy,0,2013-06-17 03:55:00